Time;durP1;ratioP1;P1;durP2;ratioP2;P2;SDS_P1;SDS_P2;PMS_P1;PMS_P2;Temp;Humidity;BMP_temperature;BMP_pressure;BME280_temperature;BME280_humidity;BME280_pressure;Samples;Min_cycle;Max_cycle;Signal;HPM_P1;HPM_P2
2022/08/04 00:01:43;;;;;;;18.67;5.13;;;26.00;87.30;;;;;;5106574;28;20020;-64
2022/08/04 00:04:56;;;;;;;17.30;5.05;;;25.90;87.30;;;;;;5093008;28;20036;-64
2022/08/04 00:08:02;;;;;;;16.05;5.57;;;25.90;87.30;;;;;;5060910;28;20043;-64
2022/08/04 00:10:29;;;;;;;18.75;5.50;;;25.90;87.30;;;;;;5069663;28;20028;-64
2022/08/04 00:12:58;;;;;;;22.55;5.05;;;25.90;87.40;;;;;;5109711;28;20043;-64
2022/08/04 00:15:25;;;;;;;15.85;5.25;;;25.80;87.40;;;;;;5102805;28;20024;-64
2022/08/04 00:18:08;;;;;;;10.98;4.85;;;25.80;87.40;;;;;;5105862;28;20092;-64
2022/08/04 00:20:41;;;;;;;20.03;5.67;;;25.80;87.30;;;;;;5093378;28;20540;-63
2022/08/04 00:23:07;;;;;;;14.85;5.65;;;25.80;87.00;;;;;;5093178;28;20282;-63
2022/08/04 00:25:33;;;;;;;17.55;5.28;;;25.80;86.90;;;;;;5092414;28;20032;-64
2022/08/04 00:28:00;;;;;;;18.10;5.65;;;25.70;87.40;;;;;;5101692;28;20024;-64
2022/08/04 00:30:27;;;;;;;19.63;6.32;;;25.70;86.80;;;;;;5106872;28;20081;-64
2022/08/04 00:32:55;;;;;;;18.85;6.30;;;25.70;86.70;;;;;;5091965;28;20035;-64
2022/08/04 00:35:21;;;;;;;18.23;5.57;;;25.70;86.90;;;;;;5096730;28;20429;-63
2022/08/04 00:37:48;;;;;;;17.92;6.70;;;25.70;86.90;;;;;;5095050;28;20027;-64
2022/08/04 00:40:31;;;;;;;14.55;5.35;;;25.60;86.90;;;;;;5098868;28;20028;-63
2022/08/04 00:43:14;;;;;;;18.38;6.25;;;25.60;86.80;;;;;;5092975;28;20032;-64
2022/08/04 00:46:14;;;;;;;26.52;6.40;;;25.60;86.70;;;;;;5110679;28;20507;-63
2022/08/04 00:48:46;;;;;;;18.38;5.97;;;25.50;86.80;;;;;;5096118;28;20028;-64
2022/08/04 00:51:27;;;;;;;24.00;6.65;;;25.60;87.20;;;;;;5092730;28;20077;-63
2022/08/04 00:54:20;;;;;;;21.02;5.45;;;25.50;87.30;;;;;;5097687;28;20040;-63
2022/08/04 00:57:23;;;;;;;18.25;6.38;;;25.50;87.20;;;;;;5092638;28;20442;-63
2022/08/04 01:00:09;;;;;;;20.13;5.95;;;25.50;87.30;;;;;;5097945;28;20050;-64
2022/08/04 01:02:41;;;;;;;21.40;6.85;;;25.40;87.30;;;;;;5099090;28;20115;-64
2022/08/04 01:05:49;;;;;;;13.02;6.90;;;25.40;87.70;;;;;;5104348;28;20364;-63
2022/08/04 01:08:43;;;;;;;17.30;6.38;;;25.40;87.90;;;;;;5097233;28;20085;-63
2022/08/04 01:11:12;;;;;;;25.90;6.63;;;25.30;87.90;;;;;;5110736;28;20027;-63
2022/08/04 01:13:57;;;;;;;17.67;6.82;;;25.30;88.20;;;;;;5100486;28;20043;-63
2022/08/04 01:16:38;;;;;;;19.75;7.15;;;25.30;88.40;;;;;;5094281;28;20024;-63
2022/08/04 01:19:35;;;;;;;18.60;6.93;;;25.30;88.70;;;;;;5105391;28;20455;-63
2022/08/04 01:22:21;;;;;;;23.25;7.70;;;25.20;88.80;;;;;;5100439;28;20028;-64
2022/08/04 01:25:25;;;;;;;16.02;7.32;;;25.20;89.10;;;;;;5094032;28;20028;-64
2022/08/04 01:28:09;;;;;;;22.15;7.18;;;25.20;89.10;;;;;;5061129;28;20036;-63
2022/08/04 01:30:36;;;;;;;18.73;6.97;;;25.20;89.40;;;;;;5092521;28;20083;-64
2022/08/04 01:33:07;;;;;;;27.13;9.13;;;25.20;89.70;;;;;;5105395;28;20044;-63
2022/08/04 01:35:55;;;;;;;24.85;7.93;;;25.10;90.00;;;;;;5104141;28;20391;-63
2022/08/04 01:38:35;;;;;;;18.23;7.45;;;25.10;89.90;;;;;;5097218;28;20028;-63
2022/08/04 01:41:06;;;;;;;21.23;7.95;;;25.10;90.00;;;;;;5099617;28;20036;-63
2022/08/04 01:43:34;;;;;;;23.83;7.38;;;25.10;90.10;;;;;;5099726;28;20122;-63
2022/08/04 01:46:02;;;;;;;21.55;7.25;;;25.00;90.10;;;;;;5099710;28;20082;-63
2022/08/04 01:48:28;;;;;;;25.00;7.68;;;25.10;90.20;;;;;;5093568;28;20544;-63
2022/08/04 01:51:07;;;;;;;18.17;7.25;;;25.00;90.20;;;;;;5105150;28;20464;-63
2022/08/04 01:53:41;;;;;;;18.73;7.70;;;25.00;90.30;;;;;;5113530;28;20071;-64
2022/08/04 01:56:09;;;;;;;21.60;7.28;;;25.00;90.30;;;;;;5099043;28;20036;-63
2022/08/04 01:58:37;;;;;;;38.95;8.57;;;25.00;90.20;;;;;;5097223;28;20031;-63
2022/08/04 02:01:12;;;;;;;21.52;8.55;;;25.00;90.20;;;;;;5099644;28;20420;-63
2022/08/04 02:03:44;;;;;;;24.02;8.60;;;25.00;90.30;;;;;;5115392;28;20467;-63
2022/08/04 02:06:23;;;;;;;19.48;7.30;;;25.00;90.40;;;;;;5102555;27;20020;-63
2022/08/04 02:09:01;;;;;;;24.40;7.70;;;24.90;90.40;;;;;;5102145;28;20084;-63
2022/08/04 02:11:29;;;;;;;30.23;9.10;;;24.90;90.50;;;;;;5105581;28;20032;-63
2022/08/04 02:14:39;;;;;;;24.52;8.05;;;24.90;90.50;;;;;;5098400;28;20119;-63
2022/08/04 02:17:08;;;;;;;20.95;8.32;;;24.90;90.60;;;;;;5098317;28;20093;-63
2022/08/04 02:20:02;;;;;;;20.45;7.50;;;24.90;90.50;;;;;;5104624;28;20084;-63
2022/08/04 02:22:29;;;;;;;18.63;7.60;;;24.90;90.50;;;;;;5095174;28;20390;-64
2022/08/04 02:25:02;;;;;;;19.55;7.70;;;24.80;90.40;;;;;;5095247;28;20039;-63
2022/08/04 02:27:33;;;;;;;18.42;7.30;;;24.80;90.50;;;;;;5095500;28;20089;-63
2022/08/04 02:30:03;;;;;;;25.17;7.78;;;24.80;90.50;;;;;;5096915;28;20048;-63
2022/08/04 02:32:38;;;;;;;15.55;7.78;;;24.80;90.50;;;;;;5115013;28;20057;-63
2022/08/04 02:35:15;;;;;;;23.23;8.23;;;24.80;90.50;;;;;;5097672;27;20028;-63
2022/08/04 02:37:54;;;;;;;18.55;8.32;;;24.70;90.50;;;;;;5095175;28;20472;-63
2022/08/04 02:40:23;;;;;;;17.40;7.75;;;24.70;90.50;;;;;;5103286;28;20066;-63
2022/08/04 02:42:49;;;;;;;23.90;7.90;;;24.70;90.60;;;;;;5114479;28;20036;-63
2022/08/04 02:45:18;;;;;;;19.88;8.10;;;24.70;90.60;;;;;;5106422;28;20741;-63
2022/08/04 02:47:46;;;;;;;23.67;8.20;;;24.70;90.70;;;;;;5095179;28;20036;-63
2022/08/04 02:50:13;;;;;;;19.10;7.75;;;24.60;90.70;;;;;;5104654;28;20031;-63
2022/08/04 02:52:42;;;;;;;34.17;9.20;;;24.70;90.80;;;;;;5098007;28;20044;-63
2022/08/04 02:55:10;;;;;;;21.40;7.53;;;24.60;90.90;;;;;;5095068;28;20483;-63
2022/08/04 02:57:38;;;;;;;18.10;8.18;;;24.60;90.90;;;;;;5110625;28;20051;-63
2022/08/04 03:00:13;;;;;;;26.92;7.55;;;24.60;90.90;;;;;;5094697;28;20028;-64
2022/08/04 03:02:53;;;;;;;24.80;9.38;;;24.60;90.90;;;;;;5111925;28;20123;-63
2022/08/04 03:05:25;;;;;;;17.27;8.02;;;24.60;91.00;;;;;;5101199;28;20425;-63
2022/08/04 03:07:56;;;;;;;21.65;7.90;;;24.50;91.00;;;;;;5094225;28;20028;-63
2022/08/04 03:10:33;;;;;;;18.08;7.43;;;24.60;91.10;;;;;;5095851;28;20036;-63
2022/08/04 03:13:36;;;;;;;16.92;7.82;;;24.50;91.10;;;;;;5094835;28;20055;-63
2022/08/04 03:16:30;;;;;;;18.77;8.15;;;24.50;90.90;;;;;;5094598;28;20103;-63
2022/08/04 03:19:20;;;;;;;21.50;8.02;;;24.50;90.90;;;;;;5088143;28;20143;-63
2022/08/04 03:21:58;;;;;;;19.10;7.95;;;24.50;90.90;;;;;;5094585;28;20024;-63
2022/08/04 03:24:38;;;;;;;25.17;8.93;;;24.40;90.90;;;;;;5095326;28;20493;-63
2022/08/04 03:27:49;;;;;;;25.70;8.07;;;24.40;90.90;;;;;;5094118;28;20020;-63
2022/08/04 03:30:18;;;;;;;21.52;8.02;;;24.40;91.00;;;;;;5098234;28;20047;-63
2022/08/04 03:33:21;;;;;;;18.52;8.60;;;24.40;91.00;;;;;;5101394;28;20051;-63
2022/08/04 03:35:58;;;;;;;22.75;9.02;;;24.40;91.00;;;;;;5095525;28;20040;-63
2022/08/04 03:39:08;;;;;;;20.42;6.85;;;24.40;91.10;;;;;;5095436;28;20031;-63
2022/08/04 03:41:53;;;;;;;18.30;7.72;;;24.30;91.10;;;;;;5108166;28;20054;-63
2022/08/04 03:44:39;;;;;;;24.60;9.00;;;24.30;91.00;;;;;;5095714;28;20032;-63
2022/08/04 03:47:35;;;;;;;21.75;8.18;;;24.30;91.10;;;;;;5096009;28;20035;-63
2022/08/04 03:50:42;;;;;;;20.65;7.60;;;24.30;91.20;;;;;;5102380;28;20497;-63
2022/08/04 03:53:29;;;;;;;19.67;7.80;;;24.30;91.20;;;;;;5093807;28;20059;-63
2022/08/04 03:56:09;;;;;;;18.23;6.78;;;24.30;91.20;;;;;;5095915;28;20463;-63
2022/08/04 03:58:51;;;;;;;21.30;8.10;;;24.30;91.30;;;;;;5095128;28;20042;-63
2022/08/04 04:01:48;;;;;;;25.17;7.68;;;24.30;91.30;;;;;;5106819;28;20111;-63
2022/08/04 04:04:32;;;;;;;21.15;8.07;;;24.30;91.30;;;;;;5092667;28;20449;-63
2022/08/04 04:07:06;;;;;;;;;;;24.20;91.30;;;;;;5107492;28;20031;-63
2022/08/04 04:09:53;;;;;;;16.60;6.70;;;24.20;91.00;;;;;;5093637;28;19918;-63
2022/08/04 04:12:42;;;;;;;25.25;7.78;;;24.20;91.10;;;;;;5093582;28;20521;-63
2022/08/04 04:15:45;;;;;;;18.55;7.55;;;24.20;91.10;;;;;;5093855;28;20463;-63
2022/08/04 04:18:21;;;;;;;17.65;7.15;;;24.20;91.10;;;;;;5100166;28;20085;-63
2022/08/04 04:21:05;;;;;;;27.27;8.20;;;24.20;91.20;;;;;;5100845;28;20026;-63
2022/08/04 04:23:51;;;;;;;18.08;7.43;;;24.20;91.30;;;;;;5095790;28;20106;-63
2022/08/04 04:26:35;;;;;;;25.92;7.78;;;24.20;91.30;;;;;;5093837;28;20032;-63
2022/08/04 04:29:44;;;;;;;16.55;7.75;;;24.20;91.40;;;;;;5101544;28;20448;-63
2022/08/04 04:32:43;;;;;;;21.65;7.38;;;24.20;91.30;;;;;;5080390;28;20039;-63
2022/08/04 04:35:26;;;;;;;25.38;7.93;;;24.20;91.40;;;;;;5095281;28;20426;-63
2022/08/04 04:37:58;;;;;;;22.50;8.70;;;24.20;91.40;;;;;;5094587;28;20028;-63
2022/08/04 04:40:57;;;;;;;22.65;7.78;;;24.20;91.40;;;;;;5094477;28;20043;-63
2022/08/04 04:43:42;;;;;;;19.00;7.55;;;24.20;91.50;;;;;;5093908;28;20031;-63
2022/08/04 04:46:14;;;;;;;23.77;7.38;;;24.20;91.40;;;;;;5103899;28;20047;-63
2022/08/04 04:49:04;;;;;;;19.73;7.82;;;24.20;91.30;;;;;;5094417;28;20483;-63
2022/08/04 04:51:49;;;;;;;20.13;7.68;;;24.20;91.30;;;;;;5092692;28;20134;-63
2022/08/04 04:54:28;;;;;;;14.13;6.82;;;24.20;91.30;;;;;;5106203;28;20079;-63
2022/08/04 04:57:17;;;;;;;22.13;7.28;;;24.20;91.40;;;;;;5093242;28;20434;-63
2022/08/04 04:59:57;;;;;;;18.30;8.05;;;24.20;91.30;;;;;;5093301;28;20032;-63
2022/08/04 05:02:56;;;;;;;20.90;7.93;;;24.20;91.30;;;;;;5105636;28;20032;-63
2022/08/04 05:05:49;;;;;;;26.73;8.50;;;24.20;91.30;;;;;;5105936;28;20123;-63
2022/08/04 05:08:46;;;;;;;23.50;8.23;;;24.20;91.40;;;;;;5102752;28;20085;-63
2022/08/04 05:11:26;;;;;;;23.92;8.82;;;24.10;91.40;;;;;;5093021;28;20024;-63
2022/08/04 05:14:06;;;;;;;20.42;8.20;;;24.20;91.60;;;;;;5105121;28;20039;-63
2022/08/04 05:16:37;;;;;;;13.30;7.28;;;24.20;91.70;;;;;;5104410;28;20035;-63
2022/08/04 05:19:18;;;;;;;21.95;7.75;;;24.10;91.70;;;;;;5112721;28;20035;-63
2022/08/04 05:22:09;;;;;;;20.10;8.80;;;24.20;91.80;;;;;;5097658;28;20081;-63
2022/08/04 05:24:40;;;;;;;25.27;8.85;;;24.20;91.80;;;;;;5112563;28;20498;-63
2022/08/04 05:27:37;;;;;;;21.58;7.20;;;24.10;92.00;;;;;;5105534;28;20028;-63
2022/08/04 05:30:05;;;;;;;13.68;6.40;;;24.20;91.60;;;;;;5093858;28;20032;-63
2022/08/04 05:32:54;;;;;;;26.75;8.25;;;24.10;91.30;;;;;;5109204;28;20075;-63
2022/08/04 05:35:29;;;;;;;16.70;6.68;;;24.10;91.40;;;;;;5098397;28;20023;-63
2022/08/04 05:37:58;;;;;;;19.17;7.82;;;24.20;91.60;;;;;;5103598;28;20484;-63
2022/08/04 05:40:25;;;;;;;22.80;7.80;;;24.20;91.50;;;;;;5096650;28;20121;-63
2022/08/04 05:42:53;;;;;;;20.20;8.43;;;24.20;91.40;;;;;;5104153;28;20035;-63
2022/08/04 05:45:21;;;;;;;25.85;8.00;;;24.20;91.40;;;;;;5110363;28;20034;-63
2022/08/04 05:47:47;;;;;;;17.13;7.53;;;24.20;91.30;;;;;;5114553;28;20467;-63
2022/08/04 05:50:13;;;;;;;19.20;7.88;;;24.30;91.30;;;;;;5114719;28;20026;-63
2022/08/04 05:52:40;;;;;;;23.13;7.88;;;24.30;91.10;;;;;;5112073;28;20130;-63
2022/08/04 05:55:08;;;;;;;24.17;8.23;;;24.30;90.90;;;;;;5110922;28;20024;-63
2022/08/04 05:57:35;;;;;;;18.40;7.80;;;24.30;91.00;;;;;;5112706;28;20359;-63
2022/08/04 06:00:05;;;;;;;17.95;7.55;;;24.40;91.00;;;;;;5096289;28;20062;-63
2022/08/04 06:02:32;;;;;;;20.38;8.20;;;24.40;91.00;;;;;;5095482;28;20055;-63
2022/08/04 06:04:59;;;;;;;18.40;7.93;;;24.40;90.70;;;;;;5096486;28;20075;-63
2022/08/04 06:07:25;;;;;;;27.65;7.50;;;24.40;90.60;;;;;;5108341;28;20024;-64
2022/08/04 06:09:51;;;;;;;20.05;7.40;;;24.40;90.50;;;;;;5105176;28;20070;-63
2022/08/04 06:12:22;;;;;;;18.92;6.90;;;24.40;90.30;;;;;;5098644;28;20055;-63
2022/08/04 06:14:51;;;;;;;16.05;6.90;;;24.40;90.20;;;;;;5096284;28;20554;-63
2022/08/04 06:17:29;;;;;;;23.60;8.20;;;24.40;90.30;;;;;;5107482;28;20390;-63
2022/08/04 06:19:56;;;;;;;21.10;7.68;;;24.50;90.40;;;;;;5112223;28;20028;-63
2022/08/04 06:22:23;;;;;;;24.30;7.40;;;24.50;90.10;;;;;;5112196;28;20023;-64
2022/08/04 06:24:52;;;;;;;16.17;6.97;;;24.60;90.10;;;;;;5114014;28;20027;-64
2022/08/04 06:27:18;;;;;;;20.40;7.38;;;24.60;89.60;;;;;;5111933;28;20027;-64
2022/08/04 06:29:47;;;;;;;15.70;6.22;;;24.60;90.10;;;;;;5111900;28;20032;-64
2022/08/04 06:32:26;;;;;;;15.93;6.13;;;24.70;90.00;;;;;;5111730;28;20038;-64
2022/08/04 06:35:00;;;;;;;16.35;6.53;;;24.70;89.90;;;;;;5109669;28;20048;-63
2022/08/04 06:37:27;;;;;;;16.27;6.47;;;24.70;89.80;;;;;;5109664;28;20032;-64
2022/08/04 06:39:54;;;;;;;19.10;5.32;;;24.70;89.10;;;;;;5109847;28;20036;-64
2022/08/04 06:42:24;;;;;;;20.42;5.70;;;24.70;88.10;;;;;;5110838;28;20066;-64
2022/08/04 06:44:56;;;;;;;19.15;6.40;;;24.70;87.60;;;;;;5099866;28;20119;-64
2022/08/04 06:47:22;;;;;;;16.65;6.03;;;24.70;88.30;;;;;;5110298;28;20114;-64
2022/08/04 06:49:51;;;;;;;17.85;5.30;;;24.80;88.20;;;;;;5111414;27;20043;-65
2022/08/04 06:52:18;;;;;;;19.30;5.47;;;24.80;88.60;;;;;;5110763;28;20028;-64
2022/08/04 06:54:49;;;;;;;16.58;5.80;;;24.80;88.40;;;;;;5108770;28;20032;-64
2022/08/04 06:57:19;;;;;;;9.93;5.50;;;24.90;88.60;;;;;;5110852;27;20080;-64
2022/08/04 06:59:48;;;;;;;22.92;7.60;;;24.90;89.30;;;;;;5109086;28;20390;-64
2022/08/04 07:02:17;;;;;;;19.85;6.53;;;25.00;90.00;;;;;;5110748;28;21384;-64
2022/08/04 07:04:43;;;;;;;22.70;6.38;;;25.00;90.00;;;;;;5111146;28;20034;-64
2022/08/04 07:07:10;;;;;;;27.05;6.05;;;25.10;89.90;;;;;;5111343;28;20033;-64
2022/08/04 07:09:38;;;;;;;14.40;5.13;;;25.10;89.80;;;;;;5108333;28;20586;-64
2022/08/04 07:12:05;;;;;;;16.23;5.57;;;25.20;89.80;;;;;;5109526;28;20031;-64
2022/08/04 07:14:34;;;;;;;17.92;5.30;;;25.20;90.00;;;;;;5109883;28;20044;-64
2022/08/04 07:17:02;;;;;;;20.70;5.05;;;25.30;90.10;;;;;;5110304;28;20069;-65
2022/08/04 07:19:29;;;;;;;11.18;5.38;;;25.40;89.60;;;;;;5107971;28;20027;-64
2022/08/04 07:21:55;;;;;;;14.35;5.47;;;25.40;89.80;;;;;;5108096;28;20040;-64
2022/08/04 07:24:29;;;;;;;18.25;5.38;;;25.40;89.70;;;;;;5108400;28;20027;-64
2022/08/04 07:26:54;;;;;;;16.42;5.25;;;25.40;90.10;;;;;;5107433;28;21068;-65
2022/08/04 07:29:21;;;;;;;14.25;5.28;;;25.50;90.20;;;;;;5107743;28;20028;-65
2022/08/04 07:31:48;;;;;;;20.70;4.28;;;25.60;90.30;;;;;;5108149;28;20059;-65
2022/08/04 07:34:14;;;;;;;11.90;5.10;;;25.60;90.00;;;;;;5107530;28;20033;-65
2022/08/04 07:36:42;;;;;;;13.77;4.65;;;25.60;90.00;;;;;;5107205;28;20027;-65
2022/08/04 07:39:08;;;;;;;21.45;4.55;;;25.70;88.90;;;;;;5108485;28;20023;-65
2022/08/04 07:41:34;;;;;;;17.67;4.40;;;25.70;88.30;;;;;;5099859;28;20023;-64
2022/08/04 07:44:01;;;;;;;16.40;4.43;;;25.70;88.10;;;;;;5111545;28;20024;-66
2022/08/04 07:46:30;;;;;;;11.95;4.28;;;25.80;88.50;;;;;;5109024;28;20118;-65
2022/08/04 07:48:58;;;;;;;13.52;4.35;;;25.80;88.30;;;;;;5107165;28;20083;-64
2022/08/04 07:51:25;;;;;;;19.67;3.83;;;25.80;88.20;;;;;;5108402;28;20028;-65
2022/08/04 07:53:54;;;;;;;15.77;2.95;;;25.90;87.80;;;;;;5111811;28;20118;-65
2022/08/04 07:56:20;;;;;;;12.60;3.30;;;25.90;87.50;;;;;;5106952;28;20027;-65
2022/08/04 07:58:46;;;;;;;18.67;3.20;;;26.00;86.50;;;;;;5109395;28;20035;-64
2022/08/04 08:01:13;;;;;;;13.50;3.35;;;26.00;85.30;;;;;;5108673;28;20023;-64
2022/08/04 08:03:39;;;;;;;10.13;3.28;;;26.00;85.40;;;;;;5109083;28;20028;-65
2022/08/04 08:06:08;;;;;;;9.70;3.35;;;26.00;85.00;;;;;;5108033;28;20107;-64
2022/08/04 08:08:38;;;;;;;12.05;3.88;;;26.00;85.00;;;;;;5109816;28;20104;-64
2022/08/04 08:11:04;;;;;;;17.13;2.85;;;26.00;86.00;;;;;;5109488;28;20196;-64
2022/08/04 08:13:31;;;;;;;9.00;2.85;;;26.00;84.40;;;;;;5109463;28;20043;-64
2022/08/04 08:15:57;;;;;;;11.52;3.35;;;26.10;83.80;;;;;;5110391;28;20027;-64
2022/08/04 08:18:23;;;;;;;8.95;3.28;;;26.10;83.80;;;;;;5109433;28;20035;-65
2022/08/04 08:20:51;;;;;;;9.65;2.60;;;26.10;84.20;;;;;;5107720;28;20027;-65
2022/08/04 08:23:17;;;;;;;9.68;2.92;;;26.10;84.50;;;;;;5108260;28;20028;-64
2022/08/04 08:25:43;;;;;;;9.02;3.15;;;26.00;84.50;;;;;;5106552;28;20076;-64
2022/08/04 08:28:09;;;;;;;4.80;2.05;;;26.10;85.20;;;;;;5109044;28;20024;-64
2022/08/04 08:30:35;;;;;;;8.25;3.08;;;26.10;84.90;;;;;;5105125;28;20057;-63
2022/08/04 08:33:04;;;;;;;17.77;3.20;;;26.00;85.40;;;;;;5111166;28;20475;-63
2022/08/04 08:35:52;;;;;;;8.80;2.63;;;26.10;86.00;;;;;;5107968;28;20065;-63
2022/08/04 08:38:26;;;;;;;11.98;2.53;;;26.00;85.60;;;;;;5103877;28;20038;-64
2022/08/04 08:41:22;;;;;;;10.90;2.58;;;26.10;85.80;;;;;;5107573;28;20028;-65
2022/08/04 08:44:10;;;;;;;11.68;2.83;;;26.00;86.10;;;;;;5110534;28;20036;-64
2022/08/04 08:47:34;;;;;;;17.88;2.85;;;26.10;87.10;;;;;;5069879;28;20391;-64
2022/08/04 08:50:11;;;;;;;;;;;26.10;86.40;;;;;;5022996;28;20060;-64
2022/08/04 08:53:01;;;;;;;7.90;3.03;;;26.10;86.00;;;;;;5010483;28;19917;-65
2022/08/04 08:55:35;;;;;;;12.75;3.85;;;26.10;87.00;;;;;;5092815;28;20048;-65
2022/08/04 08:58:16;;;;;;;8.23;3.05;;;26.10;87.30;;;;;;5104082;28;20737;-64
2022/08/04 09:01:00;;;;;;;9.55;3.20;;;26.10;87.40;;;;;;5104856;28;20057;-65
2022/08/04 09:03:50;;;;;;;14.18;3.80;;;26.20;87.50;;;;;;5102948;28;20099;-64
2022/08/04 09:06:41;;;;;;;10.88;4.28;;;26.20;88.20;;;;;;5109815;28;20027;-65
2022/08/04 09:09:35;;;;;;;12.75;4.22;;;26.20;87.70;;;;;;5108845;28;20032;-64
2022/08/04 09:12:34;;;;;;;7.53;3.70;;;26.20;88.30;;;;;;5104706;28;20024;-64
2022/08/04 09:15:11;;;;;;;12.63;4.32;;;26.30;87.80;;;;;;5105795;28;20063;-64
2022/08/04 09:17:50;;;;;;;7.93;3.63;;;26.30;88.30;;;;;;5107270;28;20032;-64
2022/08/04 09:20:30;;;;;;;16.20;4.40;;;26.40;87.50;;;;;;5109957;28;20027;-64
2022/08/04 09:23:14;;;;;;;9.60;4.43;;;26.50;87.90;;;;;;5110498;28;20039;-64
2022/08/04 09:25:48;;;;;;;8.70;4.07;;;26.50;87.00;;;;;;5108348;28;20032;-64
2022/08/04 09:28:23;;;;;;;12.95;3.58;;;26.60;86.90;;;;;;5109264;28;20015;-65
2022/08/04 09:31:08;;;;;;;12.45;5.05;;;26.60;87.00;;;;;;5101056;28;20518;-65
2022/08/04 09:33:46;;;;;;;10.48;5.40;;;26.70;87.10;;;;;;5091678;28;20048;-66
2022/08/04 09:36:34;;;;;;;7.55;3.78;;;26.70;87.20;;;;;;5092535;28;20467;-64
2022/08/04 09:39:22;;;;;;;14.13;5.18;;;26.80;87.30;;;;;;5095197;28;20035;-63
2022/08/04 09:42:27;;;;;;;9.50;4.13;;;26.80;87.10;;;;;;5109390;28;20020;-63
2022/08/04 09:45:06;;;;;;;8.00;3.92;;;26.80;86.60;;;;;;5107639;28;20048;-63
2022/08/04 09:47:36;;;;;;;12.55;4.40;;;26.90;87.20;;;;;;5106557;28;20386;-63
2022/08/04 09:50:24;;;;;;;12.38;3.90;;;26.90;87.00;;;;;;5105990;28;20034;-63
2022/08/04 09:53:10;;;;;;;7.25;3.60;;;27.00;86.80;;;;;;5106202;28;20122;-65
2022/08/04 09:55:45;;;;;;;6.75;2.83;;;27.00;86.60;;;;;;5110292;28;20023;-64
2022/08/04 09:58:23;;;;;;;7.13;3.28;;;27.10;85.80;;;;;;5098053;28;20111;-63
2022/08/04 10:00:59;;;;;;;12.13;3.22;;;27.10;86.00;;;;;;5105450;28;20434;-63
2022/08/04 10:03:32;;;;;;;15.45;3.45;;;27.20;85.10;;;;;;5092472;28;20032;-64
2022/08/04 10:06:16;;;;;;;7.68;3.47;;;27.20;84.90;;;;;;5096552;28;20136;-63
2022/08/04 10:09:11;;;;;;;9.32;3.58;;;27.20;84.80;;;;;;5097040;28;20036;-63
2022/08/04 10:11:56;;;;;;;9.23;3.33;;;27.40;84.70;;;;;;5101135;28;20036;-63
2022/08/04 10:14:45;;;;;;;12.30;3.85;;;27.40;84.20;;;;;;5102282;28;20049;-63
2022/08/04 10:17:24;;;;;;;4.88;2.38;;;27.40;84.40;;;;;;5114343;28;20024;-63
2022/08/04 10:20:02;;;;;;;11.38;3.40;;;27.40;84.40;;;;;;5104859;28;20071;-63
2022/08/04 10:22:40;;;;;;;6.05;2.92;;;27.50;84.40;;;;;;5105842;28;20395;-64
2022/08/04 10:25:40;;;;;;;7.07;2.40;;;27.60;84.60;;;;;;5108915;28;20069;-64
2022/08/04 10:28:14;;;;;;;10.02;3.00;;;27.60;84.50;;;;;;5101815;28;20028;-64
2022/08/04 10:31:04;;;;;;;5.95;2.50;;;27.60;84.40;;;;;;5109501;28;20517;-64
2022/08/04 10:33:46;;;;;;;9.75;2.28;;;27.60;84.30;;;;;;5111671;28;20509;-64
2022/08/04 10:36:17;;;;;;;8.40;3.20;;;27.70;84.30;;;;;;5113064;28;20031;-65
2022/08/04 10:39:11;;;;;;;6.55;2.75;;;27.70;83.70;;;;;;5112308;28;20024;-65
2022/08/04 10:41:55;;;;;;;11.93;2.58;;;27.70;83.00;;;;;;5107347;28;20028;-65
2022/08/04 10:44:48;;;;;;;8.60;2.45;;;27.80;82.60;;;;;;5108620;28;20169;-64
2022/08/04 10:47:18;;;;;;;7.20;2.80;;;27.90;82.30;;;;;;5109605;28;20031;-63
2022/08/04 10:49:47;;;;;;;10.30;3.20;;;27.90;82.60;;;;;;5110472;28;20031;-64
2022/08/04 10:52:29;;;;;;;4.50;2.00;;;28.00;82.60;;;;;;5100418;28;20434;-64
2022/08/04 10:55:12;;;;;;;10.10;2.40;;;28.00;82.50;;;;;;5111990;28;20034;-64
2022/08/04 10:57:49;;;;;;;12.40;2.92;;;28.10;83.00;;;;;;5098960;28;20300;-64
2022/08/04 11:00:23;;;;;;;9.85;2.30;;;28.10;83.30;;;;;;5110259;28;20024;-64
2022/08/04 11:03:14;;;;;;;5.85;2.15;;;28.10;83.70;;;;;;5106862;28;20039;-63
2022/08/04 11:06:04;;;;;;;8.10;2.90;;;28.10;83.60;;;;;;5096949;28;20036;-64
2022/08/04 11:08:47;;;;;;;13.02;2.60;;;28.20;83.80;;;;;;5102435;28;20027;-64
2022/08/04 11:11:34;;;;;;;8.77;1.83;;;28.20;83.40;;;;;;5096447;28;20028;-64
2022/08/04 11:14:12;;;;;;;9.27;1.60;;;28.40;83.50;;;;;;5107876;28;20039;-64
2022/08/04 11:16:50;;;;;;;3.63;1.48;;;28.40;82.70;;;;;;5114903;28;20046;-64
2022/08/04 11:19:47;;;;;;;4.20;1.45;;;28.50;81.80;;;;;;5096938;28;20113;-64
2022/08/04 11:22:21;;;;;;;7.18;1.58;;;28.50;81.70;;;;;;5108060;28;20035;-64
2022/08/04 11:25:13;;;;;;;5.53;1.55;;;28.50;81.70;;;;;;5094721;28;20036;-64
2022/08/04 11:27:59;;;;;;;5.53;1.50;;;28.60;80.40;;;;;;5112263;28;20047;-64
2022/08/04 11:30:31;;;;;;;5.43;1.13;;;28.70;80.50;;;;;;5099585;28;20048;-64
2022/08/04 11:33:31;;;;;;;4.07;1.30;;;28.70;80.40;;;;;;5113533;28;20082;-65
2022/08/04 11:36:07;;;;;;;1.90;1.40;;;28.70;80.40;;;;;;5101610;28;20044;-64
2022/08/04 11:38:50;;;;;;;7.10;1.30;;;28.70;80.00;;;;;;5112206;28;20046;-64
2022/08/04 11:41:34;;;;;;;6.03;1.35;;;28.80;79.80;;;;;;5107734;28;20466;-64
2022/08/04 11:44:00;;;;;;;2.10;1.00;;;28.70;78.80;;;;;;5105109;28;20027;-64
2022/08/04 11:46:37;;;;;;;2.20;1.10;;;28.70;78.60;;;;;;5109554;28;20501;-65
2022/08/04 11:49:10;;;;;;;0.70;0.70;;;28.80;79.10;;;;;;5111335;28;20038;-64
2022/08/04 11:51:38;;;;;;;3.70;1.20;;;28.80;79.20;;;;;;5110453;28;20036;-65
2022/08/04 11:54:04;;;;;;;4.60;1.50;;;28.80;79.00;;;;;;5109758;28;20474;-69
2022/08/04 11:56:30;;;;;;;3.85;1.48;;;28.80;78.70;;;;;;5109703;28;20038;-69
2022/08/04 11:58:58;;;;;;;5.95;1.58;;;28.90;78.40;;;;;;5110262;28;20031;-64
2022/08/04 12:01:27;;;;;;;5.53;0.90;;;28.80;77.80;;;;;;5106047;28;20055;-63
2022/08/04 12:04:02;;;;;;;4.85;1.25;;;28.90;77.60;;;;;;5111527;28;20028;-64
2022/08/04 12:06:52;;;;;;;2.08;1.08;;;28.90;76.70;;;;;;5105345;28;20034;-64
2022/08/04 12:09:38;;;;;;;2.40;1.20;;;29.00;74.90;;;;;;5106379;28;20028;-64
2022/08/04 12:12:24;;;;;;;8.07;1.80;;;29.00;75.30;;;;;;5103370;28;20031;-64
2022/08/04 12:15:17;;;;;;;4.53;1.60;;;29.00;76.60;;;;;;5100438;28;20047;-64
2022/08/04 12:17:57;;;;;;;4.28;1.20;;;29.00;76.20;;;;;;5102908;28;20368;-64
2022/08/04 12:20:27;;;;;;;2.97;1.67;;;29.00;76.40;;;;;;5107495;28;20188;-64
2022/08/04 12:22:55;;;;;;;2.90;1.23;;;29.10;76.10;;;;;;5107926;28;20035;-64
2022/08/04 12:25:29;;;;;;;8.38;1.75;;;29.10;75.80;;;;;;5099979;28;20028;-64
2022/08/04 12:27:59;;;;;;;3.25;1.10;;;29.10;75.20;;;;;;5093623;28;20395;-64
2022/08/04 12:30:31;;;;;;;4.95;1.30;;;29.10;75.80;;;;;;5103152;28;20117;-67
2022/08/04 12:33:05;;;;;;;4.45;1.15;;;29.10;75.90;;;;;;5111489;28;20032;-65
2022/08/04 12:35:52;;;;;;;6.30;1.35;;;29.10;75.40;;;;;;5099957;28;20032;-64
2022/08/04 12:38:22;;;;;;;5.88;1.40;;;29.20;75.80;;;;;;5106380;28;20153;-64
2022/08/04 12:40:50;;;;;;;2.30;1.05;;;29.20;74.80;;;;;;5109976;28;20032;-64
2022/08/04 12:43:19;;;;;;;3.90;1.20;;;29.10;75.20;;;;;;5111464;28;20028;-64
2022/08/04 12:45:53;;;;;;;3.10;1.40;;;29.10;75.70;;;;;;5096128;28;20169;-64
2022/08/04 12:48:22;;;;;;;10.07;1.15;;;29.10;75.50;;;;;;5094961;28;20084;-64
2022/08/04 12:50:54;;;;;;;4.07;1.48;;;29.10;75.60;;;;;;5108215;28;20499;-64
2022/08/04 12:53:25;;;;;;;3.38;1.00;;;29.20;74.40;;;;;;5096478;28;20063;-64
2022/08/04 12:55:52;;;;;;;3.15;1.27;;;29.20;74.40;;;;;;5112100;28;20067;-64
2022/08/04 12:58:23;;;;;;;5.30;1.35;;;29.10;74.20;;;;;;5107133;28;20043;-64
2022/08/04 13:01:10;;;;;;;5.18;1.10;;;29.10;72.40;;;;;;5111632;28;20132;-64
2022/08/04 13:03:44;;;;;;;4.97;1.20;;;29.10;73.40;;;;;;5111312;28;20027;-64
2022/08/04 13:06:12;;;;;;;2.35;0.93;;;29.20;72.60;;;;;;5109601;28;20024;-64
2022/08/04 13:08:42;;;;;;;2.72;0.95;;;29.10;72.90;;;;;;5111382;28;20047;-64
2022/08/04 13:11:10;;;;;;;2.85;1.00;;;29.20;71.80;;;;;;5097787;28;20036;-64
2022/08/04 13:13:37;;;;;;;5.30;1.15;;;29.10;73.60;;;;;;5106353;28;20031;-69
2022/08/04 13:16:05;;;;;;;7.97;1.30;;;29.10;73.70;;;;;;5110586;28;20374;-64
2022/08/04 13:18:44;;;;;;;2.85;1.05;;;29.10;73.20;;;;;;5106139;28;20493;-64
2022/08/04 13:21:20;;;;;;;6.32;1.20;;;29.20;73.10;;;;;;5094448;28;20036;-64
2022/08/04 13:23:48;;;;;;;6.40;1.33;;;29.20;72.80;;;;;;5105060;28;20438;-64
2022/08/04 13:26:16;;;;;;;5.00;1.35;;;29.20;73.40;;;;;;5107144;28;20031;-64
2022/08/04 13:28:45;;;;;;;2.92;1.23;;;29.20;72.40;;;;;;5106560;28;20034;-64
2022/08/04 13:31:16;;;;;;;5.10;1.50;;;29.30;73.30;;;;;;5108083;28;20498;-64
2022/08/04 13:33:44;;;;;;;5.05;1.30;;;29.30;73.60;;;;;;5109045;28;20486;-64